createdAt,value
2019-04-22T00:01:30.795Z,26.83
2019-04-22T00:04:03.877Z,27.57
2019-04-22T00:06:58.319Z,26.63
2019-04-22T00:09:32.400Z,26.07
2019-04-22T00:12:11.239Z,28.03
2019-04-22T00:14:30.792Z,28.17
2019-04-22T00:17:10.019Z,27.63
2019-04-22T00:19:40.661Z,27.40
2019-04-22T00:22:20.179Z,27.33
2019-04-22T00:24:36.959Z,29.07
2019-04-22T00:27:20.175Z,28.63
2019-04-22T00:32:19.508Z,29.97
2019-04-22T00:34:54.781Z,30.03
2019-04-22T00:37:30.101Z,31.27
2019-04-22T00:39:57.534Z,30.57
2019-04-22T00:42:36.351Z,29.80
2019-04-22T00:45:08.136Z,29.17
2019-04-22T00:50:23.766Z,27.90
2019-04-22T00:52:38.886Z,27.83
2019-04-22T00:55:23.051Z,28.47
2019-04-22T00:57:47.458Z,28.87
2019-04-22T01:00:18.169Z,28.27
2019-04-22T01:02:59.324Z,29.70
2019-04-22T01:05:30.162Z,29.60
2019-04-22T01:08:01.186Z,27.63
2019-04-22T01:10:30.624Z,28.23
2019-04-22T01:12:56.998Z,28.90
2019-04-22T01:15:36.823Z,29.63
2019-04-22T01:18:02.193Z,29.13
2019-04-22T01:21:00.511Z,29.23
2019-04-22T01:23:05.524Z,28.07
2019-04-22T01:25:37.474Z,29.67
2019-04-22T01:28:02.401Z,29.00
2019-04-22T01:30:31.160Z,29.37
2019-04-22T01:33:02.733Z,29.37
2019-04-22T01:35:35.843Z,30.03
2019-04-22T01:38:13.210Z,28.70
2019-04-22T01:41:04.503Z,30.00
2019-04-22T01:43:33.613Z,28.97
2019-04-22T01:46:01.763Z,29.60
2019-04-22T01:48:32.976Z,30.67
2019-04-22T01:51:01.400Z,30.40
2019-04-22T01:53:36.062Z,30.37
2019-04-22T01:56:06.122Z,29.00
2019-04-22T01:58:36.205Z,30.50
2019-04-22T02:01:13.685Z,29.97
2019-04-22T02:03:46.983Z,30.80
2019-04-22T02:06:13.692Z,29.90
2019-04-22T02:08:55.243Z,30.60
2019-04-22T02:11:27.858Z,29.13
2019-04-22T02:13:56.640Z,29.53
2019-04-22T02:16:27.842Z,31.17
2019-04-22T02:19:01.207Z,30.03
2019-04-22T02:21:34.265Z,31.10
2019-04-22T02:24:07.005Z,32.13
2019-04-22T02:26:40.665Z,31.40
2019-04-22T02:29:06.469Z,30.93
2019-04-22T02:31:44.149Z,32.30
2019-04-22T02:34:37.603Z,30.27
2019-04-22T02:37:04.993Z,30.63
2019-04-22T02:39:19.955Z,30.93
2019-04-22T02:41:49.795Z,30.67
2019-04-22T02:49:31.179Z,31.70
2019-04-22T02:52:06.391Z,32.00
2019-04-22T02:57:19.362Z,31.40
2019-04-22T02:59:44.401Z,32.77
2019-04-22T03:02:15.064Z,31.63
2019-04-22T03:04:47.282Z,31.70
2019-04-22T03:07:08.810Z,31.10
2019-04-22T03:09:47.759Z,31.27
2019-04-22T03:12:29.129Z,31.87
2019-04-22T03:14:48.555Z,32.90
2019-04-22T03:17:25.145Z,34.00
2019-04-22T03:22:20.976Z,34.17
2019-04-22T03:27:29.716Z,32.63
2019-04-22T03:37:53.207Z,35.77
2019-04-22T03:42:55.938Z,35.63
2019-04-22T03:53:06.171Z,34.40
2019-04-22T03:55:33.151Z,34.23
2019-04-22T03:57:57.139Z,34.60
2019-04-22T04:00:50.136Z,34.17
2019-04-22T04:03:06.882Z,35.13
2019-04-22T04:05:45.484Z,35.40
2019-04-22T04:08:14.708Z,37.47
2019-04-22T04:15:44.057Z,35.80
2019-04-22T04:18:30.850Z,35.80
2019-04-22T04:23:31.007Z,35.70
2019-04-22T04:25:54.309Z,37.00
2019-04-22T04:31:06.913Z,37.23
2019-04-22T04:33:38.786Z,37.03
2019-04-22T04:36:02.627Z,36.60
2019-04-22T04:38:46.260Z,37.13
2019-04-22T04:43:48.104Z,36.07
2019-04-22T04:47:39.235Z,36.73
2019-04-22T04:48:51.592Z,37.57
2019-04-22T04:51:24.652Z,36.73
2019-04-22T04:53:58.320Z,37.00
2019-04-22T04:56:33.968Z,37.57
2019-04-22T05:06:39.987Z,39.10
2019-04-22T05:11:46.131Z,37.47
2019-04-22T05:16:42.905Z,36.60
2019-04-22T05:19:15.721Z,39.07
2019-04-22T05:21:40.557Z,37.23
2019-04-22T05:24:19.418Z,36.30
2019-04-22T05:29:16.993Z,39.50
2019-04-22T05:31:55.363Z,41.87
2019-04-22T05:39:17.154Z,42.30
2019-04-22T05:41:55.052Z,38.63
2019-04-22T05:44:22.772Z,42.50
2019-04-22T05:46:53.285Z,41.47
2019-04-22T05:49:29.950Z,39.47
2019-04-22T05:52:02.775Z,41.20
2019-04-22T05:54:32.690Z,39.23
2019-04-22T05:57:10.975Z,38.07
2019-04-22T05:59:44.598Z,36.90
2019-04-22T06:02:21.093Z,36.97
2019-04-22T06:04:48.426Z,35.70
2019-04-22T06:07:14.983Z,35.57
2019-04-22T06:09:53.278Z,35.97
2019-04-22T06:12:17.392Z,36.07
2019-04-22T06:14:53.745Z,36.07
2019-04-22T06:17:31.725Z,35.20
2019-04-22T06:20:07.597Z,35.03
2019-04-22T06:22:50.479Z,35.27
2019-04-22T06:25:12.626Z,33.97
2019-04-22T06:27:41.299Z,33.00
2019-04-22T06:30:11.165Z,33.30
2019-04-22T06:32:46.877Z,34.97
2019-04-22T06:35:23.278Z,34.03
2019-04-22T06:37:55.022Z,32.90
2019-04-22T06:40:22.045Z,34.93
2019-04-22T06:42:53.391Z,33.23
2019-04-22T06:45:24.573Z,33.93
2019-04-22T06:48:12.799Z,32.23
2019-04-22T06:50:32.210Z,32.20
2019-04-22T06:53:06.460Z,33.63
2019-04-22T06:58:13.780Z,31.20
2019-04-22T07:00:42.853Z,31.93
2019-04-22T07:05:49.472Z,32.07
2019-04-22T07:08:39.387Z,31.07
2019-04-22T07:13:23.305Z,31.43
2019-04-22T07:16:00.326Z,30.43
2019-04-22T07:18:32.698Z,30.23
2019-04-22T07:26:05.292Z,28.70
2019-04-22T07:28:29.467Z,27.57
2019-04-22T07:31:10.276Z,27.63
2019-04-22T07:36:29.654Z,27.83
2019-04-22T07:38:36.156Z,27.03
2019-04-22T07:41:16.959Z,26.13
2019-04-22T07:46:18.295Z,24.17
2019-04-22T07:48:53.912Z,23.37
2019-04-22T07:51:30.147Z,24.30
2019-04-22T07:53:56.101Z,24.03
2019-04-22T07:56:33.176Z,24.37
2019-04-22T07:59:04.097Z,23.53
2019-04-22T08:01:39.333Z,23.07
2019-04-22T08:04:21.336Z,22.40
2019-04-22T08:06:47.819Z,23.27
2019-04-22T08:09:19.852Z,22.07
2019-04-22T08:11:51.602Z,25.23
2019-04-22T08:14:24.533Z,24.73
2019-04-22T08:16:51.340Z,20.50
2019-04-22T08:19:28.705Z,18.40
2019-04-22T08:21:57.086Z,17.20
2019-04-22T08:24:28.587Z,17.33
2019-04-22T08:27:00.909Z,16.53
2019-04-22T08:29:37.674Z,16.90
2019-04-22T08:31:59.497Z,16.77
2019-04-22T08:34:47.547Z,16.17
2019-04-22T08:37:35.671Z,16.03
2019-04-22T08:39:39.154Z,15.87
2019-04-22T08:42:17.945Z,14.40
2019-04-22T08:45:01.152Z,14.87
2019-04-22T08:47:27.764Z,14.20
2019-04-22T08:49:56.845Z,14.67
2019-04-22T08:52:23.539Z,13.77
2019-04-22T08:57:31.617Z,15.40
2019-04-22T08:59:57.507Z,15.17
2019-04-22T09:02:32.434Z,14.57
2019-04-22T09:05:06.294Z,14.07
2019-04-22T09:07:31.493Z,16.40
2019-04-22T09:10:05.160Z,16.63
2019-04-22T09:12:51.778Z,15.33
2019-04-22T09:15:14.431Z,14.77
2019-04-22T09:17:40.308Z,15.50
2019-04-22T09:20:15.501Z,15.17
2019-04-22T09:22:47.083Z,15.10
2019-04-22T09:25:18.705Z,15.80
2019-04-22T09:27:52.088Z,13.77
2019-04-22T09:30:30.652Z,13.90
2019-04-22T09:33:11.105Z,13.40
2019-04-22T09:35:31.769Z,13.83
2019-04-22T09:38:12.698Z,12.73
2019-04-22T09:40:28.931Z,11.73
2019-04-22T09:43:03.226Z,11.90
2019-04-22T09:45:34.450Z,11.65
2019-04-22T09:48:08.679Z,11.93
2019-04-22T09:50:46.431Z,10.43
2019-04-22T09:53:14.865Z,10.50
2019-04-22T09:55:43.069Z,10.82
2019-04-22T09:58:16.276Z,10.25
2019-04-22T10:01:24.349Z,10.38
2019-04-22T10:03:56.461Z,10.08
2019-04-22T10:06:30.923Z,9.55
2019-04-22T10:09:12.692Z,10.03
2019-04-22T10:11:35.026Z,9.53
2019-04-22T10:14:01.106Z,9.85
2019-04-22T10:19:08.071Z,8.38
2019-04-22T10:24:09.049Z,9.18
2019-04-22T10:26:50.373Z,7.58
2019-04-22T10:31:46.589Z,8.73
2019-04-22T10:34:05.602Z,9.23
2019-04-22T10:36:25.608Z,8.03
2019-04-22T10:38:56.040Z,8.30
2019-04-22T10:41:26.567Z,9.25
2019-04-22T10:43:57.105Z,8.28
2019-04-22T10:46:28.329Z,8.25
2019-04-22T10:49:00.000Z,8.30
2019-04-22T10:51:31.136Z,8.08
2019-04-22T10:54:01.871Z,8.40
2019-04-22T10:56:32.697Z,8.10
2019-04-22T10:59:04.709Z,7.55
2019-04-22T11:01:38.402Z,7.65
2019-04-22T11:04:08.950Z,7.55
2019-04-22T11:06:50.335Z,6.80
2019-04-22T11:09:12.461Z,6.45
2019-04-22T11:11:51.094Z,6.83
2019-04-22T11:14:15.108Z,6.87
2019-04-22T11:16:45.639Z,5.30
2019-04-22T11:19:17.335Z,5.45
2019-04-22T11:21:59.936Z,5.55
2019-04-22T11:24:21.057Z,5.12
2019-04-22T11:26:52.764Z,6.05
2019-04-22T11:29:25.468Z,5.20
2019-04-22T11:31:56.636Z,4.75
2019-04-22T11:34:27.092Z,5.15
2019-04-22T11:36:58.877Z,4.83
2019-04-22T11:39:31.197Z,5.17
2019-04-22T11:42:09.903Z,5.33
2019-04-22T11:44:41.237Z,5.17
2019-04-22T11:47:11.890Z,5.42
2019-04-22T11:49:43.803Z,5.33
2019-04-22T11:52:16.424Z,5.75
2019-04-22T11:54:46.777Z,4.97
2019-04-22T11:57:17.334Z,5.17
2019-04-22T11:59:48.963Z,4.80
2019-04-22T12:02:21.962Z,4.65
2019-04-22T12:04:53.923Z,4.87
2019-04-22T12:07:24.571Z,5.10
2019-04-22T12:09:55.614Z,5.25
2019-04-22T12:12:27.718Z,4.58
2019-04-22T12:14:58.750Z,4.95
2019-04-22T12:17:29.854Z,5.03
2019-04-22T12:20:03.315Z,5.10
2019-04-22T12:22:33.987Z,5.15
2019-04-22T12:25:10.561Z,5.28
2019-04-22T12:27:41.305Z,5.17
2019-04-22T12:30:12.455Z,6.85
2019-04-22T12:32:43.591Z,5.35
2019-04-22T12:35:15.635Z,5.22
2019-04-22T12:37:52.911Z,5.12
2019-04-22T12:40:30.183Z,4.78
2019-04-22T12:42:53.227Z,5.30
2019-04-22T12:45:24.616Z,5.60
2019-04-22T12:47:56.219Z,6.37
2019-04-22T12:50:32.798Z,6.03
2019-04-22T12:53:03.666Z,5.85
2019-04-22T12:55:32.393Z,5.37
2019-04-22T12:58:03.023Z,5.57
2019-04-22T13:00:34.323Z,4.90
2019-04-22T13:03:05.262Z,5.55
2019-04-22T13:05:37.455Z,5.05
2019-04-22T13:08:09.578Z,5.20
2019-04-22T13:10:49.526Z,5.30
2019-04-22T13:13:13.222Z,5.15
2019-04-22T13:15:44.595Z,4.67
2019-04-22T13:18:26.153Z,4.75
2019-04-22T13:20:48.485Z,4.67
2019-04-22T13:23:19.881Z,4.78
2019-04-22T13:25:50.408Z,4.95
2019-04-22T13:28:21.098Z,4.70
2019-04-22T13:30:52.694Z,4.42
2019-04-22T13:33:23.422Z,5.67
2019-04-22T13:35:54.378Z,5.15
2019-04-22T13:38:26.896Z,5.55
2019-04-22T13:41:07.227Z,5.35
2019-04-22T13:43:31.113Z,4.80
2019-04-22T13:46:01.886Z,5.08
2019-04-22T13:48:53.324Z,4.75
2019-04-22T13:51:43.109Z,4.65
2019-04-22T13:54:36.854Z,4.45
2019-04-22T13:56:30.344Z,4.35
2019-04-22T13:58:52.477Z,4.92
2019-04-22T14:01:16.514Z,5.00
2019-04-22T14:04:02.714Z,5.45
2019-04-22T14:06:34.537Z,5.05
2019-04-22T14:09:07.577Z,5.15
2019-04-22T14:11:48.916Z,5.05
2019-04-22T14:14:10.950Z,5.05
2019-04-22T14:16:42.793Z,5.62
2019-04-22T14:19:14.033Z,5.62
2019-04-22T14:21:47.375Z,5.10
2019-04-22T14:24:17.820Z,5.08
2019-04-22T14:27:01.287Z,5.37
2019-04-22T14:29:21.920Z,4.77
2019-04-22T14:32:04.246Z,4.97
2019-04-22T14:34:26.412Z,4.78
2019-04-22T14:36:57.345Z,5.05
2019-04-22T14:39:28.068Z,4.62
2019-04-22T14:42:19.466Z,4.97
2019-04-22T14:45:18.931Z,4.97
2019-04-22T14:47:25.751Z,4.40
2019-04-22T14:49:58.929Z,4.28
2019-04-22T14:52:44.507Z,4.50
2019-04-22T14:54:51.643Z,4.33
2019-04-22T14:57:12.984Z,4.03
2019-04-22T14:59:43.987Z,4.15
2019-04-22T15:02:16.083Z,4.03
2019-04-22T15:04:47.984Z,4.17
2019-04-22T15:07:19.196Z,4.42
2019-04-22T15:09:50.258Z,3.90
2019-04-22T15:12:33.665Z,4.20
2019-04-22T15:14:53.455Z,3.97
2019-04-22T15:17:33.437Z,4.03
2019-04-22T15:20:21.978Z,4.30
2019-04-22T15:22:52.746Z,3.80
2019-04-22T15:25:24.185Z,3.98
2019-04-22T15:27:55.299Z,3.83
2019-04-22T15:30:25.782Z,3.80
2019-04-22T15:32:57.211Z,3.40
2019-04-22T15:35:29.100Z,3.80
2019-04-22T15:37:59.558Z,4.20
2019-04-22T15:40:30.974Z,4.30
2019-04-22T15:43:02.632Z,3.85
2019-04-22T15:45:34.916Z,3.90
2019-04-22T15:48:18.805Z,3.80
2019-04-22T15:50:50.648Z,3.87
2019-04-22T15:53:22.060Z,3.30
2019-04-22T15:55:52.686Z,3.43
2019-04-22T15:58:23.828Z,3.60
2019-04-22T16:01:08.328Z,3.90
2019-04-22T16:03:26.896Z,3.30
2019-04-22T16:05:57.634Z,3.60
2019-04-22T16:08:29.349Z,3.53
2019-04-22T16:11:00.234Z,3.30
2019-04-22T16:13:34.759Z,3.12
2019-04-22T16:16:04.691Z,3.43
2019-04-22T16:18:36.146Z,3.13
2019-04-22T16:21:07.254Z,3.20
2019-04-22T16:23:44.688Z,3.30
2019-04-22T16:26:22.082Z,2.90
2019-04-22T16:28:55.633Z,3.00
2019-04-22T16:31:25.090Z,2.97
2019-04-22T16:33:56.303Z,2.97
2019-04-22T16:36:27.011Z,2.80
2019-04-22T16:38:57.611Z,2.80
2019-04-22T16:41:28.690Z,3.17
2019-04-22T16:44:00.663Z,3.00
2019-04-22T16:46:31.877Z,2.83
2019-04-22T16:49:03.414Z,2.70
2019-04-22T16:51:33.917Z,3.10
2019-04-22T16:54:06.361Z,2.63
2019-04-22T16:56:37.268Z,2.83
2019-04-22T16:59:08.806Z,3.00
2019-04-22T17:02:02.152Z,3.43
2019-04-22T17:04:43.018Z,4.00
2019-04-22T17:07:16.146Z,3.20
2019-04-22T17:09:47.881Z,2.80
2019-04-22T17:12:19.598Z,2.90
2019-04-22T17:14:56.291Z,2.93
2019-04-22T17:17:22.404Z,2.50
2019-04-22T17:19:53.254Z,2.50
2019-04-22T17:22:23.950Z,3.03
2019-04-22T17:24:54.456Z,2.83
2019-04-22T17:27:26.476Z,2.60
2019-04-22T17:29:57.059Z,2.40
2019-04-22T17:32:28.795Z,2.53
2019-04-22T17:34:59.440Z,2.60
2019-04-22T17:37:35.166Z,2.80
2019-04-22T17:42:55.441Z,2.50
2019-04-22T17:46:07.197Z,2.77
2019-04-22T17:49:15.354Z,2.43
2019-04-22T17:52:09.070Z,2.73
2019-04-22T17:54:38.393Z,2.70
2019-04-22T17:57:09.829Z,2.83
2019-04-22T17:59:41.863Z,2.50
2019-04-22T18:02:13.365Z,2.87
2019-04-22T18:04:35.257Z,2.70
2019-04-22T18:07:27.439Z,2.70
2019-04-22T18:10:16.166Z,2.63
2019-04-22T18:12:33.792Z,2.60
2019-04-22T18:14:59.669Z,2.60
2019-04-22T18:17:29.115Z,2.50
2019-04-22T18:19:54.582Z,2.70
2019-04-22T18:22:21.943Z,3.13
2019-04-22T18:24:56.795Z,2.77
2019-04-22T18:30:07.864Z,2.77
2019-04-22T18:32:38.046Z,3.07
2019-04-22T18:35:11.491Z,3.03
2019-04-22T18:37:42.457Z,3.10
2019-04-22T18:40:15.006Z,3.10
2019-04-22T18:42:52.533Z,3.17
2019-04-22T18:45:37.464Z,2.93
2019-04-22T18:47:45.451Z,2.87
2019-04-22T18:50:34.112Z,2.93
2019-04-22T18:53:18.910Z,3.57
2019-04-22T18:56:03.880Z,2.77
2019-04-22T18:58:33.759Z,3.30
2019-04-22T19:00:48.873Z,3.03
2019-04-22T19:03:26.292Z,2.97
2019-04-22T19:06:25.930Z,2.90
2019-04-22T19:08:55.431Z,2.83
2019-04-22T19:11:17.374Z,3.10
2019-04-22T19:14:03.288Z,2.87
2019-04-22T19:16:32.077Z,2.57
2019-04-22T19:19:18.541Z,2.70
2019-04-22T19:21:25.599Z,2.93
2019-04-22T19:23:54.028Z,2.60
2019-04-22T19:26:42.544Z,3.03
2019-04-22T19:29:00.310Z,2.67
2019-04-22T19:31:34.710Z,3.07
2019-04-22T19:34:09.422Z,2.57
2019-04-22T19:36:40.823Z,2.43
2019-04-22T19:39:07.546Z,2.83
2019-04-22T19:41:45.448Z,2.97
2019-04-22T19:44:14.270Z,2.60
2019-04-22T19:46:53.126Z,2.97
2019-04-22T19:49:24.169Z,2.83
2019-04-22T19:51:58.999Z,3.00
2019-04-22T19:54:26.123Z,2.77
2019-04-22T19:56:48.562Z,2.50
2019-04-22T19:59:25.313Z,3.27
2019-04-22T20:02:07.374Z,2.40
2019-04-22T20:05:05.995Z,2.93
2019-04-22T20:07:40.605Z,2.57
2019-04-22T20:10:19.063Z,2.30
2019-04-22T20:12:43.658Z,2.50
2019-04-22T20:15:15.633Z,2.70
2019-04-22T20:18:11.678Z,2.80
2019-04-22T20:20:28.831Z,3.30
2019-04-22T20:22:52.405Z,2.43
2019-04-22T20:25:16.581Z,2.33
2019-04-22T20:28:01.311Z,2.63
2019-04-22T20:30:32.874Z,2.67
2019-04-22T20:32:59.361Z,2.50
2019-04-22T20:35:39.090Z,2.30
2019-04-22T20:38:09.296Z,2.37
2019-04-22T20:40:40.003Z,2.47
2019-04-22T20:43:21.968Z,2.50
2019-04-22T20:45:46.468Z,2.77
2019-04-22T20:48:07.901Z,2.60
2019-04-22T20:50:54.630Z,2.37
2019-04-22T20:53:25.824Z,2.60
2019-04-22T20:55:55.228Z,2.40
2019-04-22T20:58:29.771Z,2.40
2019-04-22T21:00:53.047Z,2.70
2019-04-22T21:03:22.372Z,2.80
2019-04-22T21:05:54.089Z,2.40
2019-04-22T21:08:38.990Z,2.50
2019-04-22T21:11:04.766Z,2.20
2019-04-22T21:13:31.774Z,2.43
2019-04-22T21:16:15.289Z,2.47
2019-04-22T21:18:39.037Z,2.40
2019-04-22T21:21:23.970Z,2.60
2019-04-22T21:23:42.111Z,2.40
2019-04-22T21:26:19.534Z,2.57
2019-04-22T21:28:47.440Z,2.40
2019-04-22T21:31:29.553Z,2.50
2019-04-22T21:34:02.119Z,2.60
2019-04-22T21:38:58.917Z,2.00
2019-04-22T21:41:30.671Z,2.40
2019-04-22T21:44:04.203Z,2.23
2019-04-22T21:46:43.730Z,2.27
2019-04-22T21:49:12.900Z,2.03
2019-04-22T21:51:43.498Z,2.50
2019-04-22T21:57:07.531Z,2.67
2019-04-22T21:59:32.080Z,2.17
2019-04-22T22:02:12.324Z,2.37
2019-04-22T22:04:38.404Z,2.40
2019-04-22T22:07:03.169Z,2.80
2019-04-22T22:09:48.997Z,2.40
2019-04-22T22:12:17.112Z,1.83
2019-04-22T22:14:50.115Z,2.23
2019-04-22T22:17:22.670Z,2.10
2019-04-22T22:19:52.916Z,2.27
2019-04-22T22:22:42.107Z,2.07
2019-04-22T22:25:01.437Z,2.30
2019-04-22T22:27:34.236Z,2.17
2019-04-22T22:30:18.781Z,2.13
2019-04-22T22:32:33.767Z,1.80
2019-04-22T22:35:10.123Z,2.20
2019-04-22T22:37:28.414Z,1.90
2019-04-22T22:40:00.880Z,2.10
2019-04-22T22:42:31.309Z,1.90
2019-04-22T22:45:08.891Z,1.90
2019-04-22T22:47:45.804Z,2.20
2019-04-22T22:50:23.294Z,2.03
2019-04-22T22:53:11.223Z,2.17
2019-04-22T22:55:29.638Z,2.00
2019-04-22T22:58:06.253Z,2.30
2019-04-22T23:00:33.898Z,2.00
2019-04-22T23:03:38.077Z,2.20
2019-04-22T23:05:50.423Z,2.03
2019-04-22T23:08:20.414Z,2.30
2019-04-22T23:11:05.164Z,1.83
2019-04-22T23:13:25.816Z,2.03
2019-04-22T23:15:50.924Z,2.00
2019-04-22T23:18:07.827Z,2.13
2019-04-22T23:20:43.958Z,2.40
2019-04-22T23:23:33.400Z,1.60
2019-04-22T23:26:10.547Z,1.90
2019-04-22T23:28:43.070Z,2.10
2019-04-22T23:31:29.496Z,2.00
2019-04-22T23:34:18.492Z,2.17
2019-04-22T23:37:19.122Z,2.30
2019-04-22T23:42:27.381Z,2.00
2019-04-22T23:45:03.835Z,2.07
2019-04-22T23:47:26.536Z,2.00
2019-04-22T23:50:01.404Z,2.40
2019-04-22T23:52:43.550Z,1.97
2019-04-22T23:55:17.769Z,2.10
2019-04-22T23:57:55.346Z,2.17
